Time;durP1;ratioP1;P1;durP2;ratioP2;P2;SDS_P1;SDS_P2;PMS_P1;PMS_P2;Temp;Humidity;BMP_temperature;BMP_pressure;BME280_temperature;BME280_humidity;BME280_pressure;Samples;Min_cycle;Max_cycle;Signal;HPM_P1;HPM_P2
2023/06/17 07:48:51;;;;;;;6.63;6.03;;;;;;;;;;6249669;22;20342;-81
2023/06/17 07:51:17;;;;;;;10.45;5.90;;;;;;;;;;6308275;22;20007;-81
2023/06/17 08:24:34;;;;;;;6.65;5.47;;;;;;;;;;6308930;22;20011;-81
2023/06/17 08:27:00;;;;;;;7.45;6.45;;;;;;;;;;6310298;22;20030;-83
2023/06/17 08:29:25;;;;;;;5.53;5.03;;;;;;;;;;6310210;22;20491;-83
2023/06/17 08:31:55;;;;;;;5.72;5.22;;;;;;;;;;6309795;22;20019;-85
2023/06/17 08:34:21;;;;;;;6.43;5.78;;;;;;;;;;6310534;22;20007;-82
2023/06/17 08:36:52;;;;;;;6.00;5.28;;;;;;;;;;6310208;22;20434;-81
2023/06/17 08:39:18;;;;;;;6.00;5.30;;;;;;;;;;6310164;22;20031;-82
2023/06/17 08:41:44;;;;;;;6.40;5.35;;;;;;;;;;6309943;22;20003;-83
2023/06/17 08:44:11;;;;;;;7.03;5.72;;;;;;;;;;6310151;22;20004;-82
2023/06/17 08:46:37;;;;;;;6.32;5.70;;;;;;;;;;6310269;22;19999;-81
2023/06/17 08:49:03;;;;;;;7.30;6.50;;;;;;;;;;6310213;22;20007;-81
2023/06/17 08:51:29;;;;;;;6.97;6.00;;;;;;;;;;6282222;22;20053;-80
2023/06/17 08:53:56;;;;;;;6.15;5.55;;;;;;;;;;6310149;22;20070;-81
2023/06/17 08:56:22;;;;;;;6.25;5.68;;;;;;;;;;6310063;22;20007;-81
2023/06/17 08:58:49;;;;;;;5.80;5.30;;;;;;;;;;6310119;22;20011;-82
2023/06/17 09:01:17;;;;;;;5.90;5.15;;;;;;;;;;6310111;22;20052;-80
2023/06/17 09:03:43;;;;;;;6.72;5.53;;;;;;;;;;6310360;22;19995;-79
2023/06/17 09:06:25;;;;;;;5.70;5.10;;;;;;;;;;6310186;22;20056;-78
2023/06/17 09:08:53;;;;;;;6.38;5.70;;;;;;;;;;6309647;22;20003;-78
2023/06/17 09:11:26;;;;;;;6.88;5.65;;;;;;;;;;6309710;22;20018;-82
2023/06/17 09:13:52;;;;;;;6.20;5.60;;;;;;;;;;6309905;22;20019;-84
2023/06/17 09:16:35;;;;;;;5.93;5.32;;;;;;;;;;6310067;22;20056;-83
2023/06/17 13:15:41;;;;;;;6.68;5.50;;;;;;;;;;6293559;22;20080;-84
2023/06/17 13:18:07;;;;;;;7.07;5.93;;;;;;;;;;6282305;22;20015;-78
2023/06/17 13:20:33;;;;;;;8.07;6.65;;;;;;;;;;6308234;22;20010;-79
2023/06/17 13:22:59;;;;;;;9.73;6.50;;;;;;;;;;6309707;22;19999;-81
2023/06/17 13:25:26;;;;;;;8.23;6.28;;;;;;;;;;6296960;22;20026;-80
2023/06/17 13:27:51;;;;;;;7.80;6.43;;;;;;;;;;6309950;22;20007;-79
2023/06/17 13:30:17;;;;;;;7.53;6.60;;;;;;;;;;6309698;22;20144;-79
2023/06/17 13:32:42;;;;;;;7.57;6.53;;;;;;;;;;6309438;22;20008;-81
2023/06/17 13:35:08;;;;;;;8.55;6.10;;;;;;;;;;6309719;22;20373;-81
2023/06/17 13:37:34;;;;;;;8.75;6.38;;;;;;;;;;6309875;22;20010;-80
2023/06/17 13:39:59;;;;;;;9.52;7.10;;;;;;;;;;6309547;22;20057;-80
2023/06/17 13:42:25;;;;;;;10.70;6.50;;;;;;;;;;6309397;22;20086;-81
2023/06/17 13:44:50;;;;;;;7.18;6.45;;;;;;;;;;6309812;22;19999;-81
2023/06/17 13:47:16;;;;;;;8.65;6.30;;;;;;;;;;6309855;22;20007;-79
2023/06/17 13:49:41;;;;;;;9.98;6.97;;;;;;;;;;6309634;22;20322;-82
2023/06/17 13:52:08;;;;;;;9.82;6.88;;;;;;;;;;6309179;22;20014;-82
2023/06/17 13:54:34;;;;;;;7.65;6.85;;;;;;;;;;6309345;22;20006;-81
2023/06/17 13:56:59;;;;;;;12.68;6.63;;;;;;;;;;6309282;22;20003;-80
2023/06/17 13:59:24;;;;;;;9.80;6.18;;;;;;;;;;6309501;22;19999;-81
2023/06/17 14:01:50;;;;;;;7.78;6.53;;;;;;;;;;6307447;22;20033;-80
2023/06/17 14:04:15;;;;;;;8.57;6.97;;;;;;;;;;6309612;22;20009;-82
2023/06/17 14:06:46;;;;;;;7.43;6.30;;;;;;;;;;6309132;22;20299;-82
2023/06/17 14:09:20;;;;;;;9.00;6.13;;;;;;;;;;6309088;22;20122;-82
2023/06/17 14:11:46;;;;;;;7.25;6.50;;;;;;;;;;6281659;22;20010;-82
2023/06/17 14:14:11;;;;;;;8.43;7.38;;;;;;;;;;6308803;22;20008;-81
2023/06/17 14:16:37;;;;;;;10.18;6.45;;;;;;;;;;6308993;22;20043;-79
2023/06/17 14:19:02;;;;;;;7.45;6.72;;;;;;;;;;6308992;22;20049;-82
2023/06/17 14:21:31;;;;;;;9.25;6.70;;;;;;;;;;6308942;22;20006;-82
2023/06/17 14:24:00;;;;;;;;;;;;;;;;;;6309170;22;20007;-81
2023/06/17 14:26:25;;;;;;;10.55;6.55;;;;;;;;;;6308913;22;20008;-81
2023/06/17 14:28:51;;;;;;;6.88;6.25;;;;;;;;;;6308701;22;20422;-81
2023/06/17 14:31:16;;;;;;;9.45;6.57;;;;;;;;;;6308913;22;20333;-81
2023/06/17 14:33:42;;;;;;;7.60;6.38;;;;;;;;;;6308835;22;20003;-81
2023/06/17 14:36:08;;;;;;;6.97;5.88;;;;;;;;;;6308640;22;20049;-81
2023/06/17 14:38:33;;;;;;;6.85;6.07;;;;;;;;;;6308638;22;20086;-83
2023/06/17 14:40:59;;;;;;;6.82;6.03;;;;;;;;;;6309263;22;20006;-81
2023/06/17 14:43:24;;;;;;;8.10;6.10;;;;;;;;;;6308939;22;20038;-81
2023/06/17 14:45:50;;;;;;;8.60;6.13;;;;;;;;;;6308929;22;20006;-81
2023/06/17 14:48:15;;;;;;;6.45;5.70;;;;;;;;;;6308600;22;20089;-82
2023/06/17 14:50:40;;;;;;;7.50;6.28;;;;;;;;;;6308726;22;20038;-79
2023/06/17 14:53:06;;;;;;;7.13;6.45;;;;;;;;;;6308567;22;19999;-79
2023/06/17 14:55:31;;;;;;;7.38;6.57;;;;;;;;;;6308644;22;20003;-79
2023/06/17 14:57:57;;;;;;;8.02;6.18;;;;;;;;;;6308540;22;20007;-80
2023/06/17 15:00:22;;;;;;;7.10;6.40;;;;;;;;;;6308926;22;20418;-79
2023/06/17 15:02:56;;;;;;;7.72;6.28;;;;;;;;;;6309033;22;20006;-79
2023/06/17 15:05:22;;;;;;;7.53;6.38;;;;;;;;;;6308472;22;20307;-80
2023/06/17 15:07:48;;;;;;;9.40;5.88;;;;;;;;;;6308629;22;20377;-81
2023/06/17 15:10:14;;;;;;;8.43;6.40;;;;;;;;;;6308866;22;20034;-80
2023/06/17 15:12:44;;;;;;;8.48;6.38;;;;;;;;;;6308489;22;19999;-80
2023/06/17 15:15:13;;;;;;;7.57;5.93;;;;;;;;;;6308574;22;20030;-80
2023/06/17 15:17:40;;;;;;;7.32;6.53;;;;;;;;;;6308334;22;20068;-80
2023/06/17 15:20:06;;;;;;;10.30;7.57;;;;;;;;;;6308549;22;20442;-82
2023/06/17 15:22:32;;;;;;;6.88;6.05;;;;;;;;;;6308596;22;20003;-80
2023/06/17 15:24:57;;;;;;;6.65;5.95;;;;;;;;;;6308588;22;20097;-81
2023/06/17 15:27:23;;;;;;;7.15;5.80;;;;;;;;;;6308545;22;20003;-80
2023/06/17 15:29:49;;;;;;;8.65;6.53;;;;;;;;;;6308855;22;20058;-81
2023/06/17 15:32:14;;;;;;;6.90;5.82;;;;;;;;;;6308822;22;20026;-82
2023/06/17 15:34:40;;;;;;;8.00;6.47;;;;;;;;;;6308578;22;20027;-81
2023/06/17 15:37:06;;;;;;;7.05;5.78;;;;;;;;;;6308717;22;20424;-82
2023/06/17 15:39:32;;;;;;;8.45;6.50;;;;;;;;;;6308302;22;20037;-82
2023/06/17 15:41:57;;;;;;;8.88;6.45;;;;;;;;;;6308858;22;19999;-80
2023/06/17 15:44:23;;;;;;;7.43;6.55;;;;;;;;;;6308533;22;20003;-80
2023/06/17 15:46:49;;;;;;;7.95;7.15;;;;;;;;;;6308463;22;20433;-80
2023/06/17 15:49:15;;;;;;;9.25;7.45;;;;;;;;;;6308441;22;20037;-80
2023/06/17 15:51:40;;;;;;;7.43;6.72;;;;;;;;;;6308938;22;19999;-80
2023/06/17 15:54:06;;;;;;;7.13;5.78;;;;;;;;;;6308116;22;20014;-81
2023/06/17 15:56:34;;;;;;;6.93;6.15;;;;;;;;;;6308406;22;20004;-80
2023/06/17 15:59:00;;;;;;;7.32;6.50;;;;;;;;;;6308177;22;20326;-81
2023/06/17 16:01:26;;;;;;;8.98;7.07;;;;;;;;;;6308755;22;20424;-81
2023/06/17 16:03:52;;;;;;;9.35;7.47;;;;;;;;;;6308045;22;20430;-80
2023/06/17 16:06:17;;;;;;;13.65;9.40;;;;;;;;;;6308830;22;20006;-81
2023/06/17 16:08:45;;;;;;;11.45;9.50;;;;;;;;;;6308820;22;20381;-81
2023/06/17 16:11:10;;;;;;;11.02;8.45;;;;;;;;;;6308407;22;20414;-81
2023/06/17 16:13:37;;;;;;;7.85;7.00;;;;;;;;;;6308376;22;20061;-81
2023/06/17 16:16:03;;;;;;;8.35;6.45;;;;;;;;;;6307694;22;20011;-82
2023/06/17 16:18:29;;;;;;;7.90;6.45;;;;;;;;;;6308316;22;20007;-81
2023/06/17 16:20:54;;;;;;;7.05;6.35;;;;;;;;;;6308081;22;20034;-80
2023/06/17 16:23:20;;;;;;;6.80;6.07;;;;;;;;;;6280549;22;20007;-82
2023/06/17 16:25:45;;;;;;;6.32;5.68;;;;;;;;;;6307878;22;20006;-85
2023/06/17 16:28:12;;;;;;;8.13;6.60;;;;;;;;;;6308140;22;19999;-82
2023/06/17 16:30:38;;;;;;;9.18;7.80;;;;;;;;;;6308153;22;20045;-82
2023/06/17 16:33:04;;;;;;;11.63;8.45;;;;;;;;;;6307892;22;20007;-82
2023/06/17 16:35:30;;;;;;;8.50;7.00;;;;;;;;;;6307770;22;20433;-82
2023/06/17 16:37:55;;;;;;;7.68;6.35;;;;;;;;;;6308482;22;20078;-79
2023/06/17 16:40:21;;;;;;;8.65;7.15;;;;;;;;;;6310182;22;20437;-79
2023/06/17 16:42:46;;;;;;;9.38;7.25;;;;;;;;;;6309901;22;20121;-82
2023/06/17 16:45:12;;;;;;;7.40;6.70;;;;;;;;;;6309704;22;20410;-82
2023/06/17 16:47:37;;;;;;;8.43;7.63;;;;;;;;;;6309671;22;20007;-82
2023/06/17 16:50:04;;;;;;;11.07;8.30;;;;;;;;;;6282383;22;20034;-81
2023/06/17 16:52:29;;;;;;;7.53;6.68;;;;;;;;;;6309918;22;20074;-81
2023/06/17 16:54:55;;;;;;;7.25;6.45;;;;;;;;;;6309872;22;20342;-80
2023/06/17 16:57:21;;;;;;;8.15;6.68;;;;;;;;;;6309794;22;20003;-80
2023/06/17 16:59:47;;;;;;;8.35;7.07;;;;;;;;;;6310101;22;19999;-79
2023/06/17 17:02:12;;;;;;;11.48;8.95;;;;;;;;;;6309594;22;19999;-79
2023/06/17 17:04:38;;;;;;;9.05;8.15;;;;;;;;;;6310035;22;20014;-86
2023/06/17 17:07:04;;;;;;;8.25;7.32;;;;;;;;;;6310051;22;20370;-87
2023/06/17 17:09:30;;;;;;;11.27;10.05;;;;;;;;;;6310397;22;20303;-82
2023/06/17 17:11:56;;;;;;;9.95;8.18;;;;;;;;;;6309678;22;20089;-85
2023/06/17 17:14:22;;;;;;;9.52;8.20;;;;;;;;;;6309854;22;20000;-83
2023/06/17 17:16:48;;;;;;;9.57;8.05;;;;;;;;;;6309536;22;20012;-82
2023/06/17 17:19:13;;;;;;;11.18;9.60;;;;;;;;;;6309479;22;20010;-82
2023/06/17 17:21:39;;;;;;;10.02;8.68;;;;;;;;;;6310666;22;20003;-85
2023/06/17 17:24:04;;;;;;;12.02;9.23;;;;;;;;;;6310574;22;20363;-87
2023/06/17 17:26:30;;;;;;;12.82;9.65;;;;;;;;;;6310635;22;20004;-83
2023/06/17 17:28:57;;;;;;;12.35;9.93;;;;;;;;;;6310011;22;20010;-87
2023/06/17 17:31:23;;;;;;;11.77;10.57;;;;;;;;;;6310349;22;20438;-85
2023/06/17 17:33:49;;;;;;;9.43;8.23;;;;;;;;;;6309487;22;19999;-83
2023/06/17 17:36:15;;;;;;;9.23;8.32;;;;;;;;;;6309841;22;20377;-83
2023/06/17 17:38:42;;;;;;;9.98;8.13;;;;;;;;;;6309455;22;20031;-82
2023/06/17 17:41:07;;;;;;;10.02;8.15;;;;;;;;;;6309881;22;20003;-89
2023/06/17 17:43:33;;;;;;;7.63;6.88;;;;;;;;;;6282092;22;20003;-84
2023/06/17 17:46:00;;;;;;;9.07;6.88;;;;;;;;;;6309217;22;20011;-82
2023/06/17 17:48:26;;;;;;;7.75;6.95;;;;;;;;;;6309567;22;20061;-81
2023/06/17 17:50:51;;;;;;;7.72;6.85;;;;;;;;;;6309460;22;20007;-85
2023/06/17 17:53:17;;;;;;;9.40;8.23;;;;;;;;;;6309427;22;20003;-82
2023/06/17 17:55:42;;;;;;;8.68;7.78;;;;;;;;;;6309181;22;20045;-83
2023/06/17 17:58:08;;;;;;;7.95;6.88;;;;;;;;;;6309206;22;20052;-82
2023/06/17 18:00:33;;;;;;;8.85;6.47;;;;;;;;;;6309396;22;20437;-88
2023/06/17 18:02:59;;;;;;;7.32;6.63;;;;;;;;;;6309067;22;20003;-83
2023/06/17 18:05:24;;;;;;;6.60;6.00;;;;;;;;;;6309040;22;20041;-83
2023/06/17 18:07:50;;;;;;;7.20;6.45;;;;;;;;;;6309300;22;20007;-81
2023/06/17 18:10:15;;;;;;;7.72;6.63;;;;;;;;;;6309200;22;20415;-80
2023/06/17 18:12:41;;;;;;;11.05;9.95;;;;;;;;;;6309134;22;20079;-80
2023/06/17 18:15:06;;;;;;;13.10;10.63;;;;;;;;;;6309698;22;20470;-81
2023/06/17 18:17:32;;;;;;;7.57;6.78;;;;;;;;;;6309698;22;20094;-92
2023/06/17 18:19:57;;;;;;;8.68;7.32;;;;;;;;;;6282835;22;19999;-93
2023/06/17 18:22:22;;;;;;;7.35;6.40;;;;;;;;;;6310609;22;20029;-82
2023/06/17 18:24:48;;;;;;;7.07;6.38;;;;;;;;;;6313121;22;19999;-86
2023/06/17 18:27:15;;;;;;;7.13;6.43;;;;;;;;;;6312456;22;20014;-89
2023/06/17 18:29:40;;;;;;;8.25;7.38;;;;;;;;;;6309536;22;20006;-81
2023/06/17 18:32:06;;;;;;;8.48;6.97;;;;;;;;;;6308744;22;20003;-81
2023/06/17 18:34:31;;;;;;;7.22;6.53;;;;;;;;;;6309623;22;20003;-81
2023/06/17 18:36:57;;;;;;;8.07;6.45;;;;;;;;;;6309745;22;20006;-85
2023/06/17 18:39:23;;;;;;;8.23;6.47;;;;;;;;;;6310028;22;20053;-91
2023/06/17 18:41:48;;;;;;;8.93;7.07;;;;;;;;;;6309245;22;20291;-88
2023/06/17 18:44:14;;;;;;;6.85;5.72;;;;;;;;;;6310802;22;20419;-81
2023/06/17 18:46:40;;;;;;;7.22;6.50;;;;;;;;;;6309441;22;19999;-82
2023/06/17 18:49:07;;;;;;;7.90;6.32;;;;;;;;;;6309698;22;20026;-81
2023/06/17 18:51:32;;;;;;;7.40;6.70;;;;;;;;;;6308955;22;20000;-88
2023/06/17 18:53:58;;;;;;;7.68;6.88;;;;;;;;;;6311241;22;20000;-88
2023/06/17 18:56:26;;;;;;;7.80;6.10;;;;;;;;;;6285733;22;20004;-79
2023/06/17 18:58:51;;;;;;;8.50;6.32;;;;;;;;;;6288390;22;20035;-82
2023/06/17 19:01:17;;;;;;;8.38;6.38;;;;;;;;;;6312240;22;20045;-79
2023/06/17 19:03:42;;;;;;;8.20;6.63;;;;;;;;;;6311001;22;20017;-80
2023/06/17 19:06:08;;;;;;;7.15;6.45;;;;;;;;;;6308049;22;20007;-83
2023/06/17 19:08:33;;;;;;;7.38;6.68;;;;;;;;;;6310927;22;20078;-80
2023/06/17 19:10:59;;;;;;;7.00;6.30;;;;;;;;;;6310091;22;19999;-80
2023/06/17 19:13:24;;;;;;;9.23;7.25;;;;;;;;;;6309262;22;20084;-87
2023/06/17 19:15:49;;;;;;;7.53;6.75;;;;;;;;;;6308516;22;20015;-85
2023/06/17 19:18:16;;;;;;;7.28;6.57;;;;;;;;;;6309015;22;20044;-83
2023/06/17 19:20:41;;;;;;;6.68;5.97;;;;;;;;;;6309674;22;20051;-90
2023/06/17 19:23:07;;;;;;;7.47;6.47;;;;;;;;;;6309543;22;20418;-93
2023/06/17 19:25:32;;;;;;;7.60;6.82;;;;;;;;;;6281732;22;20007;-83
2023/06/17 19:27:58;;;;;;;7.45;6.82;;;;;;;;;;6309378;22;20441;-90
2023/06/17 19:30:24;;;;;;;7.78;6.97;;;;;;;;;;6281691;22;20059;-85
2023/06/17 19:32:50;;;;;;;7.93;6.93;;;;;;;;;;6308826;22;19999;-82
2023/06/17 19:35:15;;;;;;;9.52;6.68;;;;;;;;;;6281791;22;20029;-82
2023/06/17 19:37:41;;;;;;;8.75;6.30;;;;;;;;;;6309117;22;20003;-80
2023/06/17 19:40:07;;;;;;;12.15;6.88;;;;;;;;;;6309179;22;20327;-86
2023/06/17 19:42:32;;;;;;;7.75;6.88;;;;;;;;;;6308670;22;20026;-83
2023/06/17 19:44:57;;;;;;;10.73;9.63;;;;;;;;;;6309222;22;20387;-83
2023/06/17 19:47:24;;;;;;;10.48;9.20;;;;;;;;;;6309540;22;20086;-87
2023/06/17 19:49:52;;;;;;;9.43;8.48;;;;;;;;;;6309439;22;19999;-83
2023/06/17 19:52:18;;;;;;;9.20;8.30;;;;;;;;;;6310086;22;19999;-92
2023/06/17 19:54:43;;;;;;;8.63;7.55;;;;;;;;;;6311112;22;19999;-85
2023/06/17 19:57:10;;;;;;;8.93;7.45;;;;;;;;;;6309653;22;20076;-80
2023/06/17 19:59:35;;;;;;;8.90;6.60;;;;;;;;;;6309039;22;20065;-79
2023/06/17 20:02:01;;;;;;;7.70;6.18;;;;;;;;;;6308791;22;20407;-79
2023/06/17 20:04:27;;;;;;;7.32;6.63;;;;;;;;;;6309053;22;20003;-79
2023/06/17 20:06:52;;;;;;;8.48;7.68;;;;;;;;;;6309041;22;20022;-79
2023/06/17 20:09:18;;;;;;;8.82;7.85;;;;;;;;;;6309124;22;20438;-82
2023/06/17 20:11:43;;;;;;;7.70;7.00;;;;;;;;;;6308371;22;20369;-79
2023/06/17 20:14:08;;;;;;;7.68;6.88;;;;;;;;;;6309136;22;20009;-89
2023/06/17 20:16:34;;;;;;;7.35;6.65;;;;;;;;;;6308850;22;20007;-79
2023/06/17 20:19:00;;;;;;;9.13;7.00;;;;;;;;;;6310944;22;20019;-79
2023/06/17 20:21:26;;;;;;;8.43;7.60;;;;;;;;;;6311226;22;20030;-92
2023/06/17 20:23:51;;;;;;;7.72;6.75;;;;;;;;;;6309496;22;19999;-86
2023/06/17 20:26:16;;;;;;;8.45;6.70;;;;;;;;;;6308810;22;20022;-79
2023/06/17 20:28:43;;;;;;;7.60;6.90;;;;;;;;;;6308965;22;20330;-85
2023/06/17 20:31:08;;;;;;;8.73;7.70;;;;;;;;;;6282031;22;20008;-79
2023/06/17 20:33:34;;;;;;;7.53;6.78;;;;;;;;;;6309095;22;20006;-79
2023/06/17 20:35:59;;;;;;;10.05;6.95;;;;;;;;;;6308881;22;20112;-80
2023/06/17 20:38:27;;;;;;;8.40;7.50;;;;;;;;;;6309979;22;20042;-80
2023/06/17 20:40:52;;;;;;;9.60;8.25;;;;;;;;;;6311138;22;20065;-94
2023/06/17 20:43:18;;;;;;;8.90;7.90;;;;;;;;;;6311551;22;20307;-93
2023/06/17 20:45:43;;;;;;;10.45;8.18;;;;;;;;;;6283383;22;20003;-79
2023/06/17 20:48:09;;;;;;;9.25;8.10;;;;;;;;;;6311665;22;20014;-79
2023/06/17 20:50:34;;;;;;;10.82;9.73;;;;;;;;;;6313615;22;20010;-79
2023/06/17 20:53:00;;;;;;;9.50;8.50;;;;;;;;;;6314446;22;20414;-88
2023/06/17 20:55:28;;;;;;;9.00;7.53;;;;;;;;;;6313415;22;20007;-79
2023/06/17 20:57:55;;;;;;;9.57;6.78;;;;;;;;;;6308180;22;19995;-82
2023/06/17 21:00:20;;;;;;;7.55;6.68;;;;;;;;;;6308720;22;20034;-79
2023/06/17 21:02:46;;;;;;;7.97;7.13;;;;;;;;;;6308945;22;20003;-79
2023/06/17 21:05:11;;;;;;;7.28;6.57;;;;;;;;;;6308867;22;20003;-79
2023/06/17 21:07:38;;;;;;;7.97;6.95;;;;;;;;;;6309091;22;20051;-89
2023/06/17 21:10:03;;;;;;;7.93;7.13;;;;;;;;;;6309148;22;20022;-84
